WMT852 LIPE-LIRF
Flight info
| Callsign | WMT852 |
|---|---|
| Flight time | N/A |
| Altitude | 33000 |
| Route | LOMED DCT KUGIX DCT IBRID DCT AMTEL Q411 RITEB |
| Aircraft | A21N/M-SDE1E2E3FGIJ1J4RWXY/LB1 |
Departure
| Time | 2026-04-30 20:24 |
|---|---|
| Airport | Bologna Guglielmo Marconi Airport (LIPE) |
Arrival
| Time | N/A |
|---|---|
| Airport | Rome–Fiumicino Leonardo da Vinci International Airport (LIRF) |
| Time | Latitude | Longitude | Altitude | Speed | Heading |
|---|---|---|---|---|---|
| 2026-04-30 19:58 | 44.53322 | 11.28621 | 136 ft | 0 kts | 207° |
| 2026-04-30 20:14 | 44.53327 | 11.28625 | 136 ft | 0 kts | 207° |
| 2026-04-30 20:14 | 44.53344 | 11.28637 | 136 ft | 0 kts | 206° |
| 2026-04-30 20:14 | 44.53360 | 11.28651 | 136 ft | 0 kts | 238° |
| 2026-04-30 20:15 | 44.53364 | 11.28673 | 136 ft | 0 kts | 283° |
| 2026-04-30 20:15 | 44.53357 | 11.28698 | 136 ft | 0 kts | 297° |
| 2026-04-30 20:15 | 44.53355 | 11.28704 | 136 ft | 0 kts | 297° |
| 2026-04-30 20:18 | 44.53356 | 11.28701 | 136 ft | 2 kts | 297° |
| 2026-04-30 20:18 | 44.53367 | 11.28670 | 136 ft | 5 kts | 297° |
| 2026-04-30 20:18 | 44.53390 | 11.28606 | 136 ft | 9 kts | 296° |
| 2026-04-30 20:18 | 44.53425 | 11.28509 | 136 ft | 13 kts | 296° |
| 2026-04-30 20:19 | 44.53470 | 11.28383 | 136 ft | 16 kts | 297° |
| 2026-04-30 20:19 | 44.53524 | 11.28298 | 136 ft | 12 kts | 7° |
| 2026-04-30 20:19 | 44.53584 | 11.28208 | 136 ft | 15 kts | 297° |
| 2026-04-30 20:19 | 44.53637 | 11.28059 | 136 ft | 19 kts | 297° |
| 2026-04-30 20:20 | 44.53700 | 11.27885 | 136 ft | 21 kts | 297° |
| 2026-04-30 20:20 | 44.53769 | 11.27694 | 136 ft | 17 kts | 297° |
| 2026-04-30 20:20 | 44.53820 | 11.27552 | 136 ft | 17 kts | 297° |
| 2026-04-30 20:20 | 44.53870 | 11.27414 | 136 ft | 7 kts | 297° |
| 2026-04-30 20:21 | 44.53905 | 11.27341 | 136 ft | 11 kts | 326° |
| 2026-04-30 20:21 | 44.53978 | 11.27274 | 136 ft | 14 kts | 326° |
| 2026-04-30 20:21 | 44.54036 | 11.27219 | 135 ft | 6 kts | 329° |
| 2026-04-30 20:21 | 44.54087 | 11.27227 | 135 ft | 9 kts | 34° |
| 2026-04-30 20:22 | 44.54101 | 11.27324 | 135 ft | 13 kts | 117° |
| 2026-04-30 20:22 | 44.54078 | 11.27384 | 135 ft | 0 kts | 116° |
| 2026-04-30 20:23 | 44.54077 | 11.27385 | 135 ft | 0 kts | 116° |
| 2026-04-30 20:24 | 44.54072 | 11.27398 | 135 ft | 17 kts | 116° |
| 2026-04-30 20:24 | 44.53850 | 11.28022 | 135 ft | 123 kts | 117° |
| 2026-04-30 20:24 | 44.53379 | 11.29326 | 642 ft | 156 kts | 117° |
| 2026-04-30 20:24 | 44.53075 | 11.30792 | 1587 ft | 164 kts | 87° |
| 2026-04-30 20:25 | 44.54735 | 11.33153 | 3476 ft | 193 kts | 32° |
| 2026-04-30 20:25 | 44.55910 | 11.34130 | 4512 ft | 199 kts | 35° |
| 2026-04-30 20:26 | 44.58276 | 11.36202 | 6608 ft | 202 kts | 36° |
| 2026-04-30 20:26 | 44.60670 | 11.38326 | 8521 ft | 206 kts | 34° |
| 2026-04-30 20:26 | 44.61783 | 11.39719 | 9106 ft | 231 kts | 54° |